Time;durP1;ratioP1;P1;durP2;ratioP2;P2;SDS_P1;SDS_P2;PMS_P1;PMS_P2;Temp;Humidity;BMP_temperature;BMP_pressure;BME280_temperature;BME280_humidity;BME280_pressure;Samples;Min_cycle;Max_cycle;Signal;HPM_P1;HPM_P2
2022/09/07 00:00:27;;;;;;;0.60;0.60;;;19.40;99.90;;;;;;5073260;28;20488;-76
2022/09/07 00:02:56;;;;;;;0.50;0.30;;;19.30;99.90;;;;;;5073279;28;20498;-76
2022/09/07 00:05:22;;;;;;;0.70;0.60;;;19.10;99.90;;;;;;5073194;28;20819;-76
2022/09/07 00:07:49;;;;;;;0.50;0.40;;;18.90;99.90;;;;;;5073003;28;20493;-76
2022/09/07 00:10:17;;;;;;;0.60;0.60;;;18.80;99.90;;;;;;5072941;28;20464;-77
2022/09/07 00:12:44;;;;;;;0.60;0.50;;;18.70;99.90;;;;;;5072737;28;20497;-76
2022/09/07 00:15:11;;;;;;;1.27;0.60;;;18.60;99.90;;;;;;5072898;28;20436;-76
2022/09/07 00:17:39;;;;;;;1.80;1.33;;;18.40;99.90;;;;;;5072690;28;20497;-75
2022/09/07 00:20:12;;;;;;;0.83;0.70;;;18.30;99.90;;;;;;5072893;28;20496;-76
2022/09/07 00:22:39;;;;;;;0.50;0.40;;;18.20;99.90;;;;;;5073019;28;20456;-77
2022/09/07 00:25:07;;;;;;;0.50;0.40;;;18.10;99.90;;;;;;5072487;28;20504;-76
2022/09/07 00:27:34;;;;;;;0.50;0.40;;;18.00;99.90;;;;;;5072536;28;20420;-75
2022/09/07 00:30:01;;;;;;;0.73;0.53;;;18.00;99.90;;;;;;5072574;28;20547;-76
2022/09/07 00:32:28;;;;;;;1.13;1.13;;;18.00;99.90;;;;;;5072450;28;20483;-73
2022/09/07 00:34:55;;;;;;;0.50;0.30;;;18.00;99.90;;;;;;5072075;28;21034;-77
2022/09/07 00:37:23;;;;;;;1.07;0.50;;;17.90;99.90;;;;;;5072420;28;20432;-78
2022/09/07 00:39:50;;;;;;;2.63;2.43;;;17.90;99.90;;;;;;5072474;28;20552;-78
2022/09/07 00:42:19;;;;;;;4.77;1.37;;;17.90;99.90;;;;;;5072714;28;20476;-76
2022/09/07 00:45:14;;;;;;;5.00;2.33;;;17.80;99.90;;;;;;5072488;28;20468;-76
2022/09/07 00:47:48;;;;;;;13.13;3.00;;;17.80;99.90;;;;;;5072698;28;20420;-73
2022/09/07 00:50:21;;;;;;;0.90;0.67;;;17.80;99.90;;;;;;5072406;28;20476;-74
2022/09/07 00:52:54;;;;;;;1.43;0.67;;;17.70;99.90;;;;;;5072384;28;20522;-74
2022/09/07 00:55:21;;;;;;;0.50;0.30;;;17.70;99.90;;;;;;5072102;28;20464;-75
2022/09/07 00:57:53;;;;;;;0.60;0.60;;;17.70;99.90;;;;;;5071925;28;20486;-74
2022/09/07 01:00:20;;;;;;;8.33;1.63;;;17.60;99.90;;;;;;5072383;28;20491;-75
2022/09/07 01:02:50;;;;;;;0.50;0.30;;;17.60;99.90;;;;;;5072424;28;20432;-75
2022/09/07 01:05:23;;;;;;;0.50;0.40;;;17.60;99.90;;;;;;5071728;28;20475;-76
2022/09/07 01:07:55;;;;;;;0.50;0.40;;;17.60;99.90;;;;;;5072017;28;20479;-75
2022/09/07 01:10:24;;;;;;;4.83;0.50;;;17.60;99.90;;;;;;5072057;28;20841;-75
2022/09/07 01:12:51;;;;;;;0.50;0.30;;;17.60;99.90;;;;;;5071460;28;20956;-76
2022/09/07 01:15:20;;;;;;;0.50;0.30;;;17.60;99.90;;;;;;5071581;28;20437;-74
2022/09/07 01:17:56;;;;;;;0.50;0.30;;;17.50;99.90;;;;;;5071858;28;20480;-75
2022/09/07 01:20:35;;;;;;;0.50;0.40;;;17.50;99.90;;;;;;5071513;28;20455;-75
2022/09/07 01:23:40;;;;;;;0.50;0.30;;;17.50;99.90;;;;;;5071695;28;20463;-75
2022/09/07 01:26:42;;;;;;;0.50;0.40;;;17.40;99.90;;;;;;5071453;28;20448;-75
2022/09/07 01:29:16;;;;;;;0.50;0.30;;;17.40;99.90;;;;;;5071746;28;20513;-75
2022/09/07 01:31:54;;;;;;;0.50;0.30;;;17.50;99.90;;;;;;5071382;28;20520;-76
2022/09/07 01:34:23;;;;;;;4.57;1.80;;;17.60;99.90;;;;;;5070779;28;20471;-76
2022/09/07 01:36:57;;;;;;;0.50;0.30;;;17.60;99.90;;;;;;5071626;28;20464;-76
2022/09/07 01:39:31;;;;;;;0.50;0.30;;;17.60;99.90;;;;;;5071453;28;20456;-72
2022/09/07 01:42:04;;;;;;;0.50;0.37;;;17.60;99.90;;;;;;5071431;28;20475;-76
2022/09/07 01:44:36;;;;;;;0.50;0.40;;;17.60;99.90;;;;;;5070350;28;20496;-74
2022/09/07 01:47:08;;;;;;;0.50;0.30;;;17.60;99.90;;;;;;5071682;28;20459;-75
2022/09/07 01:49:39;;;;;;;0.50;0.40;;;17.60;99.90;;;;;;5071253;28;20490;-76
2022/09/07 01:52:13;;;;;;;0.50;0.30;;;17.60;99.90;;;;;;5071244;28;20472;-76
2022/09/07 01:54:45;;;;;;;0.50;0.30;;;17.50;99.90;;;;;;5070807;28;20440;-76
2022/09/07 01:57:17;;;;;;;0.50;0.30;;;17.50;99.90;;;;;;5071426;28;20479;-76
2022/09/07 01:59:53;;;;;;;0.50;0.30;;;17.50;99.90;;;;;;5071136;28;20459;-76
2022/09/07 02:02:24;;;;;;;0.50;0.30;;;17.50;99.90;;;;;;5071265;28;20535;-76
2022/09/07 02:04:58;;;;;;;0.50;0.40;;;17.50;99.90;;;;;;5070701;28;20464;-75
2022/09/07 02:07:30;;;;;;;0.50;0.30;;;17.60;99.90;;;;;;5071406;28;20425;-76
2022/09/07 02:10:01;;;;;;;0.50;0.30;;;17.50;99.90;;;;;;5070841;28;20561;-76
2022/09/07 02:12:39;;;;;;;0.50;0.30;;;17.50;99.90;;;;;;5071578;28;20462;-73
2022/09/07 02:15:13;;;;;;;0.50;0.30;;;17.50;99.90;;;;;;5071130;28;20876;-76
2022/09/07 02:17:44;;;;;;;0.50;0.40;;;17.50;99.90;;;;;;5070865;28;20432;-76
2022/09/07 02:20:14;;;;;;;0.50;0.30;;;17.50;99.90;;;;;;5071223;28;20493;-76
2022/09/07 02:22:45;;;;;;;0.50;0.30;;;17.40;99.90;;;;;;5071179;28;20967;-76
2022/09/07 02:25:20;;;;;;;0.50;0.40;;;17.40;99.90;;;;;;5070767;28;20484;-76
2022/09/07 02:27:51;;;;;;;1.03;0.53;;;17.30;99.90;;;;;;5070974;28;20907;-75
2022/09/07 02:30:20;;;;;;;0.50;0.30;;;17.20;99.90;;;;;;5071147;28;20513;-77
2022/09/07 02:32:47;;;;;;;0.50;0.30;;;17.20;99.90;;;;;;5070905;28;20901;-76
2022/09/07 02:35:14;;;;;;;0.50;0.40;;;17.20;99.90;;;;;;5070529;28;20468;-76
2022/09/07 02:37:43;;;;;;;0.50;0.40;;;17.10;99.90;;;;;;5070985;28;21157;-75
2022/09/07 02:40:11;;;;;;;0.50;0.30;;;17.10;99.90;;;;;;5070735;28;20573;-76
2022/09/07 02:42:39;;;;;;;0.50;0.30;;;17.20;99.90;;;;;;5070536;28;21010;-76
2022/09/07 02:45:10;;;;;;;0.50;0.30;;;17.10;99.90;;;;;;5070601;28;20958;-76
2022/09/07 02:47:57;;;;;;;0.50;0.40;;;17.10;99.90;;;;;;5070812;28;20440;-72
2022/09/07 02:50:44;;;;;;;0.50;0.40;;;17.10;99.90;;;;;;5070964;28;21020;-75
2022/09/07 02:53:32;;;;;;;0.50;0.30;;;17.10;99.90;;;;;;5070638;28;20515;-76
2022/09/07 02:56:09;;;;;;;0.50;0.40;;;17.10;99.90;;;;;;5069565;28;20483;-75
2022/09/07 02:58:45;;;;;;;0.50;0.40;;;17.10;99.90;;;;;;5074550;28;20467;-76
2022/09/07 03:01:23;;;;;;;0.50;0.30;;;17.10;99.90;;;;;;5074421;28;20543;-76
2022/09/07 03:03:59;;;;;;;0.50;0.33;;;17.10;99.90;;;;;;5073620;28;20439;-75
2022/09/07 03:06:30;;;;;;;0.50;0.30;;;17.00;99.90;;;;;;5074296;28;20511;-75
2022/09/07 03:09:00;;;;;;;0.50;0.30;;;17.00;99.90;;;;;;5074050;28;20471;-76
2022/09/07 03:11:28;;;;;;;0.50;0.37;;;17.00;99.90;;;;;;5075580;28;20428;-74
2022/09/07 03:14:11;;;;;;;0.50;0.30;;;17.00;99.90;;;;;;5073886;28;20440;-76
2022/09/07 03:16:38;;;;;;;0.50;0.30;;;16.90;99.90;;;;;;5073693;28;20436;-76
2022/09/07 03:19:06;;;;;;;0.50;0.40;;;16.90;99.90;;;;;;5074336;28;20459;-76
2022/09/07 03:21:34;;;;;;;0.50;0.30;;;16.90;99.90;;;;;;5074140;28;20901;-75
2022/09/07 03:24:01;;;;;;;0.50;0.40;;;16.90;99.90;;;;;;5073556;28;20742;-76
2022/09/07 03:26:28;;;;;;;0.50;0.30;;;16.80;99.90;;;;;;5074217;28;20515;-77
2022/09/07 03:28:55;;;;;;;0.50;0.40;;;16.90;99.90;;;;;;5074063;28;20456;-75
2022/09/07 03:31:22;;;;;;;0.50;0.30;;;16.80;99.90;;;;;;5073963;28;20437;-76
2022/09/07 03:33:49;;;;;;;0.50;0.40;;;16.90;99.90;;;;;;5073399;28;20475;-75
2022/09/07 03:36:17;;;;;;;0.50;0.40;;;17.00;99.90;;;;;;5073783;28;20448;-75
2022/09/07 03:38:44;;;;;;;0.50;0.30;;;17.00;99.90;;;;;;5073518;28;20869;-75
2022/09/07 03:41:11;;;;;;;0.50;0.30;;;17.10;99.90;;;;;;5073812;28;20973;-76
2022/09/07 03:43:38;;;;;;;0.50;0.50;;;17.00;99.90;;;;;;5073737;28;20464;-75
2022/09/07 03:46:09;;;;;;;0.97;0.50;;;17.10;99.90;;;;;;5073221;28;20526;-76
2022/09/07 03:48:37;;;;;;;0.50;0.30;;;17.10;99.90;;;;;;5073444;28;20493;-76
2022/09/07 03:51:06;;;;;;;0.50;0.30;;;17.10;99.90;;;;;;5073418;28;20929;-76
2022/09/07 03:53:36;;;;;;;0.50;0.40;;;17.10;99.90;;;;;;5073390;28;20525;-75
2022/09/07 03:56:06;;;;;;;0.50;0.40;;;17.10;99.90;;;;;;5073077;28;20501;-76
2022/09/07 03:58:34;;;;;;;0.50;0.40;;;17.10;99.90;;;;;;5073326;28;20960;-76
2022/09/07 04:01:05;;;;;;;0.50;0.40;;;17.00;99.90;;;;;;5073316;28;20529;-76
2022/09/07 04:03:32;;;;;;;0.50;0.37;;;16.90;99.90;;;;;;5073249;28;20433;-74
2022/09/07 04:06:00;;;;;;;0.50;0.30;;;16.90;99.90;;;;;;5072852;28;20516;-77
2022/09/07 04:08:27;;;;;;;0.50;0.30;;;16.90;99.90;;;;;;5072302;28;20981;-75
2022/09/07 04:10:57;;;;;;;0.50;0.50;;;16.80;99.90;;;;;;5073244;28;20523;-76
2022/09/07 04:13:24;;;;;;;0.50;0.30;;;16.90;99.90;;;;;;5072857;28;20433;-74
2022/09/07 04:15:51;;;;;;;0.50;0.30;;;16.90;99.90;;;;;;5072455;28;20428;-75
2022/09/07 04:18:18;;;;;;;0.50;0.30;;;16.90;99.90;;;;;;5072887;28;20440;-76
2022/09/07 04:20:45;;;;;;;2.43;2.33;;;16.90;99.90;;;;;;5072826;28;20598;-75
2022/09/07 04:23:12;;;;;;;0.50;0.30;;;17.00;99.90;;;;;;5073074;28;20436;-76
2022/09/07 04:25:46;;;;;;;1.37;1.27;;;17.00;99.90;;;;;;5072265;28;20507;-75
2022/09/07 04:28:15;;;;;;;2.73;2.30;;;17.00;99.90;;;;;;5072908;28;20420;-75
2022/09/07 04:30:42;;;;;;;1.80;0.80;;;17.10;99.90;;;;;;5072946;28;20496;-75
2022/09/07 04:33:09;;;;;;;0.50;0.30;;;17.10;99.90;;;;;;5072612;28;20468;-76
2022/09/07 04:35:36;;;;;;;0.50;0.30;;;17.00;99.90;;;;;;5072061;28;20771;-74
2022/09/07 04:38:03;;;;;;;2.00;1.90;;;16.90;99.90;;;;;;5083375;28;20442;-76
2022/09/07 04:40:30;;;;;;;0.50;0.40;;;16.90;99.90;;;;;;5092497;28;20456;-75
2022/09/07 04:42:57;;;;;;;0.50;0.40;;;16.90;99.90;;;;;;5092677;28;20996;-77
2022/09/07 04:45:25;;;;;;;1.27;0.93;;;17.00;99.90;;;;;;5092534;28;20547;-76
2022/09/07 04:47:52;;;;;;;0.50;0.40;;;17.00;99.90;;;;;;5092642;28;20463;-76
2022/09/07 04:50:19;;;;;;;0.70;0.70;;;17.00;99.90;;;;;;5092637;28;20981;-77
2022/09/07 04:52:46;;;;;;;0.60;0.50;;;17.00;99.90;;;;;;5092261;28;20439;-75
2022/09/07 04:55:13;;;;;;;0.50;0.40;;;17.00;99.90;;;;;;5092175;28;20470;-76
2022/09/07 04:57:40;;;;;;;0.60;0.53;;;16.90;99.90;;;;;;5092511;28;20436;-76
2022/09/07 05:00:09;;;;;;;0.97;0.97;;;17.00;99.90;;;;;;5092934;28;20485;-76
2022/09/07 05:02:37;;;;;;;1.17;1.17;;;17.00;99.90;;;;;;5092538;28;20537;-75
2022/09/07 05:05:05;;;;;;;0.50;0.30;;;16.90;99.90;;;;;;5091619;28;20570;-75
2022/09/07 05:07:32;;;;;;;0.50;0.30;;;17.00;99.90;;;;;;5092350;28;20806;-76
2022/09/07 05:09:59;;;;;;;1.13;1.00;;;17.00;99.90;;;;;;5091736;28;20934;-76
2022/09/07 05:12:26;;;;;;;0.50;0.30;;;17.00;99.90;;;;;;5091844;28;20463;-76
2022/09/07 05:14:52;;;;;;;0.50;0.30;;;17.00;99.90;;;;;;5091703;28;20466;-76
2022/09/07 05:17:19;;;;;;;0.50;0.30;;;17.00;99.90;;;;;;5092032;28;20471;-76
2022/09/07 05:19:48;;;;;;;0.50;0.40;;;16.90;99.90;;;;;;5092176;28;20501;-76
2022/09/07 05:22:15;;;;;;;0.50;0.40;;;16.90;99.90;;;;;;5091600;28;20463;-76
2022/09/07 05:24:42;;;;;;;0.50;0.30;;;17.00;99.90;;;;;;5091880;28;20432;-76
2022/09/07 05:27:08;;;;;;;0.50;0.30;;;16.90;99.90;;;;;;5091490;28;20562;-76
2022/09/07 05:29:35;;;;;;;0.50;0.30;;;16.90;99.90;;;;;;5085015;28;20504;-75
2022/09/07 05:32:02;;;;;;;0.90;0.60;;;17.00;99.90;;;;;;5091372;28;20835;-76
2022/09/07 05:34:29;;;;;;;0.50;0.43;;;17.10;99.90;;;;;;5081846;28;20496;-76
2022/09/07 05:36:58;;;;;;;0.50;0.43;;;17.10;99.90;;;;;;5091421;28;20458;-77
2022/09/07 05:39:25;;;;;;;0.50;0.30;;;17.10;99.90;;;;;;5091511;28;20452;-77
2022/09/07 05:41:52;;;;;;;1.87;1.77;;;17.10;99.90;;;;;;5091466;28;20442;-76
2022/09/07 05:44:19;;;;;;;14.90;8.20;;;17.20;99.90;;;;;;5087233;28;20522;-76
2022/09/07 05:46:46;;;;;;;0.50;0.40;;;17.20;99.90;;;;;;5070900;28;20468;-76
2022/09/07 05:49:13;;;;;;;0.50;0.30;;;17.30;99.90;;;;;;5070618;28;20448;-76
2022/09/07 05:51:40;;;;;;;0.50;0.30;;;17.30;99.90;;;;;;5070534;28;20557;-76
2022/09/07 05:54:10;;;;;;;7.60;1.13;;;17.30;99.90;;;;;;5070810;28;20854;-77
2022/09/07 05:56:37;;;;;;;2.20;1.27;;;17.40;99.90;;;;;;5070752;28;20428;-74
2022/09/07 05:59:05;;;;;;;0.50;0.50;;;17.50;99.90;;;;;;5070998;28;20891;-77
2022/09/07 06:01:34;;;;;;;0.80;0.70;;;17.80;99.90;;;;;;5070909;28;20490;-75
2022/09/07 06:04:01;;;;;;;2.00;1.90;;;17.90;99.90;;;;;;5071007;28;20489;-77
2022/09/07 06:06:28;;;;;;;0.50;0.40;;;18.00;99.90;;;;;;5070965;28;20533;-75
2022/09/07 06:08:56;;;;;;;0.50;0.37;;;17.90;99.90;;;;;;5070695;28;20496;-76
2022/09/07 06:11:25;;;;;;;2.10;0.60;;;17.90;99.90;;;;;;5070958;28;20436;-76
2022/09/07 06:13:52;;;;;;;0.50;0.40;;;17.90;99.90;;;;;;5070643;28;20436;-74
2022/09/07 06:16:20;;;;;;;0.50;0.30;;;18.00;99.90;;;;;;5071108;28;20485;-75
2022/09/07 06:18:49;;;;;;;0.50;0.30;;;18.10;99.90;;;;;;5070866;28;20578;-75
2022/09/07 06:21:18;;;;;;;0.60;0.40;;;18.20;99.90;;;;;;5070997;28;20432;-77
2022/09/07 06:23:46;;;;;;;0.50;0.30;;;18.30;99.90;;;;;;5070632;28;20991;-76
2022/09/07 06:26:15;;;;;;;0.50;0.40;;;18.30;99.90;;;;;;5070505;28;20499;-76
2022/09/07 06:28:45;;;;;;;0.50;0.30;;;18.40;99.90;;;;;;5070869;28;20486;-77
2022/09/07 06:31:14;;;;;;;0.50;0.37;;;18.50;99.90;;;;;;5074000;28;20475;-77
2022/09/07 06:33:43;;;;;;;1.73;1.63;;;18.60;99.90;;;;;;5074714;28;20525;-77
2022/09/07 06:36:12;;;;;;;2.80;2.13;;;18.60;99.90;;;;;;5074966;28;20502;-77
2022/09/07 06:38:40;;;;;;;8.83;2.40;;;18.60;99.90;;;;;;5074378;28;20421;-77
2022/09/07 06:41:09;;;;;;;5.47;2.07;;;18.60;99.90;;;;;;5074653;28;20452;-76
2022/09/07 06:43:36;;;;;;;0.50;0.40;;;18.70;99.90;;;;;;5074870;28;20435;-76
2022/09/07 06:46:05;;;;;;;0.97;0.90;;;18.90;99.90;;;;;;5074256;28;20474;-77
2022/09/07 06:48:33;;;;;;;0.50;0.37;;;19.30;99.90;;;;;;5074276;28;20466;-76
2022/09/07 06:51:02;;;;;;;0.60;0.50;;;20.00;99.90;;;;;;5074464;28;20795;-76
2022/09/07 06:53:31;;;;;;;0.50;0.40;;;20.40;99.90;;;;;;5075268;28;20455;-77
2022/09/07 06:55:59;;;;;;;0.53;0.40;;;20.20;99.90;;;;;;5074192;28;20440;-77
2022/09/07 06:58:27;;;;;;;0.50;0.30;;;20.00;99.90;;;;;;5074132;28;20444;-75
2022/09/07 07:00:56;;;;;;;0.93;0.83;;;20.30;99.90;;;;;;5074347;28;20527;-78
2022/09/07 07:03:24;;;;;;;2.50;1.40;;;21.60;99.90;;;;;;5074401;28;20440;-78
2022/09/07 07:05:52;;;;;;;1.30;1.20;;;23.10;99.90;;;;;;5073676;28;20968;-77
2022/09/07 07:08:19;;;;;;;0.73;0.73;;;24.10;99.90;;;;;;5074602;28;20464;-77
2022/09/07 07:10:46;;;;;;;1.00;0.87;;;24.70;99.90;;;;;;5073806;28;20452;-78
2022/09/07 07:13:13;;;;;;;21.13;2.20;;;25.00;99.90;;;;;;5074188;28;20858;-77
2022/09/07 07:15:40;;;;;;;0.50;0.30;;;25.10;99.90;;;;;;5073318;28;20452;-78
2022/09/07 07:18:08;;;;;;;2.40;1.37;;;25.20;99.90;;;;;;5074219;28;20444;-77
2022/09/07 07:20:37;;;;;;;0.80;0.80;;;25.10;99.90;;;;;;5073999;28;20903;-77
2022/09/07 07:23:04;;;;;;;2.50;1.57;;;24.70;99.90;;;;;;5073779;28;20448;-78
2022/09/07 07:25:33;;;;;;;0.50;0.30;;;24.70;99.90;;;;;;5073266;28;20424;-77
2022/09/07 07:28:00;;;;;;;0.50;0.30;;;24.70;99.90;;;;;;5073763;28;20790;-77
2022/09/07 07:30:27;;;;;;;0.70;0.70;;;24.40;99.90;;;;;;5073929;28;20506;-77
2022/09/07 07:32:56;;;;;;;1.37;1.27;;;24.00;99.90;;;;;;5073485;28;20428;-78
2022/09/07 07:35:23;;;;;;;1.53;1.43;;;23.90;99.90;;;;;;5073267;28;20451;-77
2022/09/07 07:37:54;;;;;;;1.33;0.60;;;24.10;99.90;;;;;;5073628;28;20436;-77
2022/09/07 07:40:21;;;;;;;1.50;1.10;;;24.10;99.90;;;;;;5073563;28;20471;-77
2022/09/07 07:42:48;;;;;;;3.23;2.23;;;23.90;99.90;;;;;;5072314;28;20501;-77
2022/09/07 07:45:16;;;;;;;1.33;1.23;;;23.50;99.90;;;;;;5072937;28;20424;-77
2022/09/07 07:47:43;;;;;;;1.30;0.97;;;23.10;99.90;;;;;;5072747;28;20879;-76
2022/09/07 07:50:10;;;;;;;0.60;0.60;;;23.20;99.90;;;;;;5073007;28;20468;-76
2022/09/07 07:52:40;;;;;;;2.97;1.27;;;23.10;99.90;;;;;;5072420;28;20514;-77
2022/09/07 07:55:09;;;;;;;1.70;1.63;;;22.90;99.90;;;;;;5072717;28;20543;-77
2022/09/07 07:57:36;;;;;;;1.90;1.80;;;22.60;99.90;;;;;;5072526;28;20432;-77
2022/09/07 08:00:05;;;;;;;2.73;1.90;;;22.30;99.90;;;;;;5072935;28;20521;-76
2022/09/07 08:02:33;;;;;;;2.03;1.37;;;22.30;99.90;;;;;;5072977;28;20428;-75
2022/09/07 08:05:00;;;;;;;2.50;2.40;;;23.60;99.90;;;;;;5072530;28;20801;-78
2022/09/07 08:07:27;;;;;;;2.13;1.63;;;23.80;99.90;;;;;;5072371;28;20925;-77
2022/09/07 08:09:54;;;;;;;0.50;0.40;;;23.40;99.90;;;;;;5072155;28;20480;-77
2022/09/07 08:12:23;;;;;;;0.50;0.50;;;22.90;99.90;;;;;;5072907;28;20448;-75
2022/09/07 08:14:50;;;;;;;1.00;0.63;;;22.40;99.90;;;;;;5072274;28;20508;-77
2022/09/07 08:17:17;;;;;;;2.63;2.43;;;21.70;99.90;;;;;;5072749;28;20439;-77
2022/09/07 08:19:45;;;;;;;0.57;0.47;;;21.20;99.90;;;;;;5072449;28;20495;-77
2022/09/07 08:22:12;;;;;;;0.93;0.57;;;20.80;99.90;;;;;;5072150;28;20468;-77
2022/09/07 08:24:40;;;;;;;7.63;1.07;;;20.40;99.90;;;;;;5071669;28;20435;-77
2022/09/07 08:27:07;;;;;;;0.80;0.80;;;20.10;99.90;;;;;;5072638;28;20511;-77
2022/09/07 08:29:35;;;;;;;1.07;0.93;;;19.90;99.90;;;;;;5072266;28;20472;-76
2022/09/07 08:32:04;;;;;;;0.50;0.30;;;19.80;99.90;;;;;;5071818;28;20501;-76
2022/09/07 08:34:31;;;;;;;0.50;0.30;;;19.70;99.90;;;;;;5071383;28;20462;-77
2022/09/07 08:36:58;;;;;;;0.50;0.40;;;19.50;99.90;;;;;;5072147;28;20867;-78
2022/09/07 08:39:25;;;;;;;0.50;0.30;;;19.50;99.90;;;;;;5072203;28;21015;-77
2022/09/07 08:42:04;;;;;;;0.50;0.40;;;19.50;99.90;;;;;;5072088;28;20531;-77
2022/09/07 08:44:34;;;;;;;0.50;0.40;;;19.40;99.90;;;;;;5071408;28;20440;-78
2022/09/07 08:47:09;;;;;;;0.50;0.40;;;19.40;99.90;;;;;;5071360;28;20482;-77
2022/09/07 08:49:44;;;;;;;2.83;2.63;;;19.30;99.90;;;;;;5071636;28;20517;-77
2022/09/07 08:52:14;;;;;;;0.50;0.40;;;19.30;99.90;;;;;;5071643;28;20845;-77
2022/09/07 08:54:45;;;;;;;0.50;0.30;;;19.00;99.90;;;;;;5070582;28;20471;-77
2022/09/07 08:57:27;;;;;;;0.50;0.40;;;19.10;99.90;;;;;;5071558;28;20436;-77
2022/09/07 09:00:02;;;;;;;1.83;1.13;;;19.20;99.90;;;;;;5071070;28;20448;-77
2022/09/07 09:02:31;;;;;;;1.33;0.73;;;19.40;99.90;;;;;;5071544;28;20791;-78
2022/09/07 09:04:57;;;;;;;1.33;1.17;;;19.40;99.90;;;;;;5071354;28;20528;-77
2022/09/07 09:07:30;;;;;;;0.80;0.80;;;19.40;99.90;;;;;;5070976;28;20496;-77
2022/09/07 09:10:14;;;;;;;1.77;1.60;;;19.50;99.90;;;;;;5070459;28;20471;-77
2022/09/07 09:12:55;;;;;;;0.50;0.40;;;19.50;99.90;;;;;;5072714;28;20440;-78
2022/09/07 09:15:30;;;;;;;6.00;2.30;;;19.50;99.90;;;;;;5071079;28;20448;-78
2022/09/07 09:18:06;;;;;;;0.70;0.70;;;19.80;99.90;;;;;;5071596;28;20450;-77
2022/09/07 09:20:40;;;;;;;2.20;0.97;;;20.00;99.90;;;;;;5071002;28;20467;-77
2022/09/07 09:23:12;;;;;;;2.80;2.70;;;20.10;99.90;;;;;;5071707;28;20444;-77
2022/09/07 09:25:42;;;;;;;0.53;0.50;;;20.20;99.90;;;;;;5070709;28;20449;-75
2022/09/07 09:28:12;;;;;;;8.50;2.50;;;20.20;99.90;;;;;;5070686;28;20541;-77
2022/09/07 09:30:39;;;;;;;0.50;0.40;;;20.30;99.90;;;;;;5070982;28;20526;-77
2022/09/07 09:33:19;;;;;;;2.83;2.73;;;20.40;99.90;;;;;;5071712;28;20535;-78
2022/09/07 09:35:49;;;;;;;2.40;2.00;;;20.90;99.90;;;;;;5070399;28;20444;-76
2022/09/07 09:38:31;;;;;;;0.60;0.50;;;21.00;99.90;;;;;;5071316;28;20448;-77
2022/09/07 09:41:02;;;;;;;6.63;2.53;;;21.50;99.90;;;;;;5071663;28;20456;-78
2022/09/07 09:43:36;;;;;;;0.60;0.60;;;22.20;99.90;;;;;;5071933;28;20480;-77
2022/09/07 09:46:04;;;;;;;0.50;0.40;;;22.50;99.90;;;;;;5070964;28;20436;-77
2022/09/07 09:48:36;;;;;;;0.80;0.73;;;22.70;99.90;;;;;;5071018;28;20472;-78
2022/09/07 09:51:06;;;;;;;2.30;2.20;;;22.70;99.90;;;;;;5071089;28;20803;-78
2022/09/07 09:53:37;;;;;;;2.60;2.50;;;22.60;99.90;;;;;;5071046;28;20476;-76
2022/09/07 09:56:05;;;;;;;5.20;1.13;;;22.50;99.90;;;;;;5070957;28;20484;-78
2022/09/07 09:58:34;;;;;;;1.00;1.00;;;22.60;99.90;;;;;;5071037;28;20803;-78
2022/09/07 10:01:02;;;;;;;2.20;1.17;;;22.80;99.90;;;;;;5071133;28;20856;-77
2022/09/07 10:03:31;;;;;;;9.63;1.80;;;22.70;99.90;;;;;;5071557;28;20489;-77
2022/09/07 10:06:02;;;;;;;1.43;0.63;;;22.40;99.90;;;;;;5070400;28;20472;-78
2022/09/07 10:08:31;;;;;;;1.80;1.70;;;22.30;99.90;;;;;;5070696;28;20460;-76
2022/09/07 10:11:00;;;;;;;1.20;1.10;;;22.40;99.90;;;;;;5070976;28;20448;-77
2022/09/07 10:13:31;;;;;;;2.03;1.90;;;23.20;99.90;;;;;;5070774;28;20894;-77
2022/09/07 10:16:01;;;;;;;1.43;1.43;;;23.80;99.90;;;;;;5070716;28;20505;-79
2022/09/07 10:18:34;;;;;;;2.50;0.90;;;24.10;99.90;;;;;;5070949;28;20937;-75
2022/09/07 10:21:25;;;;;;;10.50;0.80;;;24.30;99.90;;;;;;5070943;28;20451;-77
2022/09/07 10:23:57;;;;;;;4.40;2.00;;;24.40;99.90;;;;;;5070385;28;20481;-74
2022/09/07 10:26:33;;;;;;;2.60;2.03;;;24.40;99.90;;;;;;5071368;28;20791;-78
2022/09/07 10:29:15;;;;;;;1.07;0.93;;;24.10;99.90;;;;;;5071083;28;20527;-77
2022/09/07 10:32:19;;;;;;;0.50;0.40;;;24.50;99.90;;;;;;5071199;28;20452;-77
2022/09/07 10:34:59;;;;;;;1.13;0.90;;;25.40;99.90;;;;;;5070204;28;20463;-78
2022/09/07 10:37:34;;;;;;;3.20;2.73;;;26.00;99.90;;;;;;5070946;28;20523;-77
2022/09/07 10:40:15;;;;;;;1.40;0.73;;;25.40;99.90;;;;;;5070831;28;20459;-77
2022/09/07 10:42:49;;;;;;;2.83;2.63;;;24.60;99.90;;;;;;5070903;28;20546;-78
2022/09/07 10:45:20;;;;;;;0.73;0.73;;;24.40;99.90;;;;;;5070624;28;20424;-77
2022/09/07 10:47:58;;;;;;;0.80;0.80;;;24.20;99.90;;;;;;5070193;28;20475;-78
2022/09/07 10:50:30;;;;;;;1.03;0.80;;;23.90;99.90;;;;;;5070971;28;20551;-78
2022/09/07 10:53:14;;;;;;;0.60;0.50;;;23.80;99.90;;;;;;5070889;28;20794;-78
2022/09/07 10:55:42;;;;;;;1.53;1.43;;;23.80;99.90;;;;;;5070508;28;20442;-76
2022/09/07 10:58:24;;;;;;;1.30;1.20;;;23.90;99.90;;;;;;5070515;28;20474;-77
2022/09/07 11:01:05;;;;;;;0.97;0.93;;;23.90;99.90;;;;;;5070638;28;20941;-78
2022/09/07 11:03:54;;;;;;;0.50;0.40;;;23.50;99.90;;;;;;5070793;28;20435;-77
2022/09/07 11:06:25;;;;;;;2.67;2.57;;;23.90;99.90;;;;;;5070894;28;20436;-77
2022/09/07 11:09:10;;;;;;;0.50;0.40;;;24.50;99.90;;;;;;5070472;28;20567;-77
2022/09/07 11:11:40;;;;;;;0.50;0.30;;;25.00;99.90;;;;;;5071324;28;20433;-77
2022/09/07 11:14:14;;;;;;;0.50;0.30;;;25.10;99.90;;;;;;5069782;28;20443;-78
2022/09/07 11:16:50;;;;;;;1.43;0.97;;;25.30;99.90;;;;;;5071833;28;21049;-77
2022/09/07 11:19:22;;;;;;;0.97;0.83;;;25.60;99.90;;;;;;5073995;28;20462;-77
2022/09/07 11:21:58;;;;;;;2.30;1.77;;;26.20;99.90;;;;;;5073405;28;20544;-77
2022/09/07 11:24:32;;;;;;;0.60;0.60;;;26.70;99.90;;;;;;5073873;28;20546;-77
2022/09/07 11:27:07;;;;;;;1.27;1.17;;;26.90;99.90;;;;;;5073808;28;20459;-78
2022/09/07 11:29:40;;;;;;;0.70;0.70;;;26.40;99.90;;;;;;5074096;28;20816;-77
2022/09/07 11:32:11;;;;;;;0.50;0.30;;;25.80;99.90;;;;;;5072757;28;20431;-77
2022/09/07 11:34:43;;;;;;;0.50;0.30;;;25.50;99.90;;;;;;5073331;28;20466;-76
2022/09/07 11:37:16;;;;;;;0.70;0.70;;;25.50;99.90;;;;;;5074110;28;20425;-77
2022/09/07 11:39:51;;;;;;;0.50;0.30;;;25.70;99.90;;;;;;5073597;28;20542;-78
2022/09/07 11:42:25;;;;;;;1.30;1.20;;;25.60;99.90;;;;;;5073143;28;20435;-76
2022/09/07 11:44:57;;;;;;;1.83;1.73;;;25.50;99.90;;;;;;5073492;28;20427;-77
2022/09/07 11:47:28;;;;;;;0.50;0.30;;;25.20;99.90;;;;;;5073725;28;20853;-77
2022/09/07 11:49:55;;;;;;;0.50;0.40;;;24.90;99.90;;;;;;5073315;28;20496;-78
2022/09/07 11:52:31;;;;;;;0.50;0.40;;;24.60;99.90;;;;;;5072896;28;20444;-77
2022/09/07 11:55:03;;;;;;;1.00;0.83;;;24.30;99.90;;;;;;5072955;28;20420;-77
2022/09/07 11:57:42;;;;;;;1.37;1.00;;;24.10;99.90;;;;;;5073200;28;20437;-77
2022/09/07 12:00:14;;;;;;;0.50;0.30;;;24.10;99.90;;;;;;5072991;28;20467;-77
2022/09/07 12:03:06;;;;;;;0.50;0.40;;;24.10;99.90;;;;;;5072690;28;20445;-75
2022/09/07 12:05:54;;;;;;;0.50;0.40;;;24.40;99.90;;;;;;5072484;28;20431;-78
2022/09/07 12:08:34;;;;;;;0.50;0.30;;;25.20;99.90;;;;;;5072510;28;20479;-75
2022/09/07 12:11:17;;;;;;;1.70;1.60;;;26.60;99.90;;;;;;5072627;28;20432;-78
2022/09/07 12:14:11;;;;;;;0.60;0.50;;;28.10;99.90;;;;;;5072597;28;20931;-75
2022/09/07 12:16:58;;;;;;;0.60;0.50;;;29.00;99.90;;;;;;5072759;28;20444;-78
2022/09/07 12:19:26;;;;;;;0.50;0.30;;;28.50;99.90;;;;;;5072692;28;20571;-77
2022/09/07 12:21:58;;;;;;;5.23;0.87;;;28.30;99.90;;;;;;5072549;28;20471;-77
2022/09/07 12:24:43;;;;;;;0.77;0.70;;;28.00;99.90;;;;;;5072513;28;20451;-77
2022/09/07 12:27:30;;;;;;;0.93;0.93;;;28.20;99.90;;;;;;5072299;28;20432;-77
2022/09/07 12:30:52;;;;;;;0.50;0.50;;;28.70;99.90;;;;;;5072327;28;20542;-77
2022/09/07 12:33:34;;;;;;;0.50;0.40;;;28.90;99.90;;;;;;5072460;28;20516;-77
2022/09/07 12:36:01;;;;;;;3.17;1.23;;;28.90;99.90;;;;;;5072313;28;20424;-78
2022/09/07 12:39:07;;;;;;;0.50;0.30;;;29.40;99.90;;;;;;5071923;28;20433;-77
2022/09/07 12:41:44;;;;;;;0.83;0.83;;;30.20;99.90;;;;;;5073039;28;20436;-77
2022/09/07 12:44:20;;;;;;;5.43;2.73;;;30.10;99.90;;;;;;5071864;28;20489;-78
2022/09/07 12:46:52;;;;;;;0.50;0.30;;;29.80;99.90;;;;;;5072327;28;20926;-77
2022/09/07 12:49:44;;;;;;;1.23;1.23;;;29.60;99.90;;;;;;5071906;28;20479;-77
2022/09/07 12:52:45;;;;;;;0.50;0.40;;;29.30;99.90;;;;;;5071990;28;21008;-78
2022/09/07 12:55:26;;;;;;;0.50;0.40;;;29.30;99.90;;;;;;5046322;28;20436;-77
2022/09/07 12:57:59;;;;;;;0.57;0.43;;;28.90;99.90;;;;;;5072119;28;20432;-77
2022/09/07 13:00:36;;;;;;;0.50;0.30;;;28.50;99.90;;;;;;5071648;28;21083;-77
2022/09/07 13:03:24;;;;;;;0.50;0.30;;;27.90;99.90;;;;;;5071688;28;20515;-77
2022/09/07 13:06:02;;;;;;;0.50;0.37;;;27.40;99.90;;;;;;5071906;28;20484;-78
2022/09/07 13:08:53;;;;;;;1.10;1.00;;;27.00;99.90;;;;;;5071812;28;20456;-75